Key Lake Airport
CYKJ : now visible

Airfield :











YOU CAN JOIN US ON...

 
LOGIN :

Register | Disclaimer

   EN    FR    IT 

 









Legend :    VFR   Marginal VFR   IFR   Intensive IFR   Very Intensive IFR
Visi :
Ceiling :
>= 8 km
>= 3000ft
5 to 8 km
1000 to 3000 ft
1500m to 5 km
500 to 1000 ft
800 to 1500m
200 to 500 ft
< 800m
< 200 ft
Symbols :   Thunderstorms  Fog  Heavy snow  Heavy precipitations  Wind > 20 kt






- Airport Elevation : 1679 ft
- IATA code : YKJ


CYKJ - Key Lake

CURRENT METAR :
  • 072013Z AUTO 29009KT 260V330 9SM -SN BKN025 M04/M09 A2946 RMK SLP011

EXPIRED METARs :
  • 072007Z AUTO 29008KT 260V330 9SM BKN025 M04/M09 A2946 RMK SLP010
  • 071953Z AUTO 28008KT 8SM -SN OVC025 M04/M09 A2945 RMK SLP009
  • 071933Z AUTO 31007KT 9SM -SN BKN023 BKN030 M04/M08 A2945 RMK SLP010
  • 071900Z AUTO 30007KT 260V340 6SM -SN BKN017 M04/M09 A2945 RMK SLP007
  • 071859Z AUTO 29008KT 260V340 6SM -SN BKN017 M04/M09 A2945 RMK SLP007
  • 071842Z AUTO 33006KT 240V350 9SM -SN BKN017 M05/M09 A2944 RMK SLP006
  • 071810Z AUTO 31008KT 6SM -SN SCT015 M05/M09 A2944 RMK SLP006
  • 071737Z AUTO 29008KT 260V320 6SM -SN BKN017 OVC035 M05/M09 A2944 RMK SLP004

TAF TAF CYKJ
Valid from the 07 at 19:00 until the 08 at 00:00 UTC


071838Z 0719/0724 30008KT P6SM BKN025
TEMPO 0719/0724 5SM -SN OVC012 RMK FCST BASED ON AUTO OBS. NXT FCST WILL BE ISSUED AT 080945Z



MET'MAP, your aeronautical weather chart ! - Copyright ORBIFLY December 2007 - Disclaimer

ORBIFLY MET'MAP TEAM :

Programming & Development : Alexandra Zaïnal
Concept & original design : Baudouin d'Aumeries
Assistance for programming : Marc-Olivier Méhu
Technical & hardware support : Manuel Goepfert

Contact : metmap@orbifly.com




SOURCES & CREDITS :

   NOAA       Earth
Advisory